Time;durP1;ratioP1;P1;durP2;ratioP2;P2;SDS_P1;SDS_P2;PMS_P1;PMS_P2;Temp;Humidity;BMP_temperature;BMP_pressure;BME280_temperature;BME280_humidity;BME280_pressure;Samples;Min_cycle;Max_cycle;Signal;HPM_P1;HPM_P2
2021/03/27 00:02:00;;;;;;;0.20;0.20;;;9.70;93.60;;;11.95;82.97;101122.94;5002704;28;97423;-69
2021/03/27 00:04:42;;;;;;;4.57;1.20;;;9.50;93.60;;;11.79;83.46;101114.41;5007853;28;97076;-69
2021/03/27 00:07:22;;;;;;;0.20;0.20;;;9.40;93.60;;;11.71;82.96;101108.94;4996963;28;97831;-69
2021/03/27 00:09:56;;;;;;;0.00;0.00;;;9.30;93.60;;;11.56;83.29;101128.81;5008157;28;96666;-69
2021/03/27 00:12:34;;;;;;;0.00;0.00;;;9.20;93.60;;;11.40;82.96;101121.34;5003297;28;98125;-69
2021/03/27 00:15:22;;;;;;;0.05;0.05;;;9.00;93.50;;;11.27;83.25;101120.22;4996413;28;97027;-69
2021/03/27 00:17:56;;;;;;;0.10;0.10;;;8.90;93.60;;;11.19;83.94;101131.66;5005425;28;97124;-69
2021/03/27 00:20:38;;;;;;;0.00;0.00;;;8.80;93.90;;;11.11;84.25;101135.03;5005317;28;96902;-69
2021/03/27 00:23:16;;;;;;;0.13;0.13;;;8.70;93.80;;;11.10;83.52;101146.03;4997530;28;97141;-69
2021/03/27 00:25:52;;;;;;;0.00;0.00;;;8.70;93.90;;;11.04;84.26;101153.34;5001812;28;96864;-69
2021/03/27 00:28:32;;;;;;;0.10;0.10;;;8.60;94.00;;;11.02;83.75;101155.53;4999563;28;97794;-69
2021/03/27 00:31:08;;;;;;;0.10;0.10;;;8.50;94.10;;;10.99;84.11;101148.09;5008070;28;96903;-69
2021/03/27 00:33:43;;;;;;;0.22;0.22;;;8.50;94.20;;;10.92;83.82;101158.41;5004183;28;97274;-69
2021/03/27 00:36:20;;;;;;;0.63;0.20;;;8.50;94.20;;;10.91;83.97;101154.13;5000961;28;101995;-69
2021/03/27 00:39:00;;;;;;;0.10;0.10;;;8.40;94.20;;;10.85;83.88;101159.06;4999685;28;97807;-69
2021/03/27 00:41:48;;;;;;;0.00;0.00;;;8.40;94.10;;;10.75;83.67;101154.66;5002126;28;97066;-69
2021/03/27 00:44:18;;;;;;;0.32;0.30;;;8.30;94.10;;;10.67;83.71;101160.69;5001781;28;97509;-69
2021/03/27 00:46:47;;;;;;;0.00;0.00;;;8.30;94.10;;;10.59;83.95;101160.56;5004898;28;98362;-69
2021/03/27 00:49:21;;;;;;;0.10;0.10;;;8.20;94.00;;;10.47;83.69;101177.06;5004405;28;98024;-69
2021/03/27 00:52:04;;;;;;;0.10;0.10;;;8.10;93.90;;;10.37;83.88;101173.72;5002159;28;96902;-69
2021/03/27 00:54:41;;;;;;;0.00;0.00;;;8.00;93.90;;;10.32;83.84;101176.47;4998984;28;96802;-69
2021/03/27 00:57:18;;;;;;;0.00;0.00;;;7.90;93.90;;;10.30;83.92;101179.44;5008296;28;99027;-69
2021/03/27 01:00:06;;;;;;;0.00;0.00;;;7.90;94.00;;;10.29;83.69;101177.84;5003561;28;97634;-69
2021/03/27 01:03:04;;;;;;;0.00;0.00;;;7.80;94.00;;;10.28;83.51;101186.19;5002182;28;96917;-69
2021/03/27 01:05:55;;;;;;;0.13;0.13;;;7.80;94.10;;;10.15;83.71;101176.16;5004023;28;96979;-69
2021/03/27 01:08:53;;;;;;;0.30;0.30;;;7.70;94.00;;;10.06;83.84;101172.53;4961980;28;97052;-70
2021/03/27 01:11:47;;;;;;;1.95;1.30;;;7.60;94.10;;;10.04;83.96;101185.41;5006553;28;97702;-70
2021/03/27 01:14:28;;;;;;;0.20;0.20;;;7.60;94.10;;;10.03;84.09;101178.47;5000345;28;98907;-68
2021/03/27 01:17:03;;;;;;;0.10;0.10;;;7.50;94.20;;;10.03;84.02;101187.28;5006834;28;97063;-68
2021/03/27 01:19:41;;;;;;;0.03;0.03;;;7.50;94.20;;;10.02;84.15;101185.69;5006259;28;96999;-68
2021/03/27 01:22:14;;;;;;;0.10;0.10;;;7.50;94.30;;;9.97;84.10;101177.69;5009354;28;97473;-68
2021/03/27 01:24:43;;;;;;;2.63;0.52;;;7.50;94.30;;;10.00;84.28;101181.69;5001336;28;96808;-68
2021/03/27 01:27:25;;;;;;;0.00;0.00;;;7.40;94.30;;;10.00;84.13;101182.47;5002485;28;97415;-68
2021/03/27 01:30:04;;;;;;;0.20;0.20;;;7.40;94.30;;;9.94;83.67;101182.84;5003863;28;97961;-69
2021/03/27 01:32:50;;;;;;;0.00;0.00;;;7.40;94.30;;;9.93;83.63;101186.59;5002046;28;96637;-69
2021/03/27 01:35:30;;;;;;;0.00;0.00;;;7.40;94.30;;;9.89;83.48;101183.69;5008006;28;96965;-69
2021/03/27 01:38:10;;;;;;;0.57;0.32;;;7.30;94.20;;;9.80;83.47;101187.28;5008408;28;96868;-69
2021/03/27 01:40:58;;;;;;;0.45;0.45;;;7.30;94.10;;;9.68;83.62;101182.31;5001649;28;97886;-69
2021/03/27 01:43:36;;;;;;;0.15;0.15;;;7.20;94.10;;;9.64;83.76;101177.84;4999118;28;98307;-69
2021/03/27 01:46:56;;;;;;;0.00;0.00;;;7.10;94.10;;;9.58;83.60;101193.16;5008436;28;97267;-69
2021/03/27 01:49:53;;;;;;;0.10;0.10;;;7.10;94.20;;;9.54;83.67;101191.31;4975105;28;96935;-69
2021/03/27 01:53:08;;;;;;;0.17;0.17;;;7.00;94.20;;;9.54;83.46;101185.97;5000015;28;97313;-68
2021/03/27 01:55:57;;;;;;;0.10;0.10;;;7.00;94.30;;;9.57;83.38;101201.44;5002487;28;97125;-69
2021/03/27 01:58:32;;;;;;;1.60;0.73;;;6.90;94.30;;;9.52;83.35;101202.31;5001687;28;96794;-68
2021/03/27 02:01:08;;;;;;;0.20;0.20;;;6.90;94.30;;;9.48;83.48;101211.16;5002158;28;96718;-68
2021/03/27 02:03:48;;;;;;;8.05;0.95;;;6.80;94.30;;;9.49;83.50;101207.41;5009313;28;97824;-68
2021/03/27 02:06:23;;;;;;;0.63;0.47;;;6.80;94.60;;;9.53;83.46;101198.56;5007337;28;97823;-68
2021/03/27 02:09:09;;;;;;;0.82;0.73;;;6.80;94.40;;;9.57;83.14;101201.44;5004605;28;96852;-68
2021/03/27 02:12:09;;;;;;;0.77;0.75;;;6.80;94.40;;;9.51;82.90;101207.91;5006119;28;96828;-68
2021/03/27 02:14:49;;;;;;;1.30;0.65;;;6.80;94.40;;;9.48;83.32;101208.50;5003337;28;98975;-68
2021/03/27 02:17:28;;;;;;;0.10;0.10;;;6.80;94.40;;;9.51;83.19;101205.25;5002661;28;97568;-68
2021/03/27 02:21:05;;;;;;;0.52;0.52;;;6.80;94.50;;;9.52;83.04;101215.69;5006080;28;97227;-68
2021/03/27 02:23:57;;;;;;;0.17;0.17;;;6.80;94.50;;;9.45;83.14;101214.41;5007280;28;97057;-68
2021/03/27 02:26:51;;;;;;;0.10;0.10;;;6.80;94.40;;;9.48;83.26;101221.88;5006430;28;101586;-68
2021/03/27 02:30:06;;;;;;;1.05;0.63;;;6.80;94.40;;;9.48;83.11;101219.19;4985316;28;96937;-68
2021/03/27 02:33:23;;;;;;;0.10;0.10;;;6.80;94.40;;;9.43;83.07;101217.34;5006284;28;96869;-68
2021/03/27 02:36:16;;;;;;;0.80;0.77;;;6.70;94.40;;;9.43;83.35;101228.06;4999463;28;96845;-69
2021/03/27 02:39:07;;;;;;;2.83;1.02;;;6.70;94.40;;;9.43;82.87;101230.72;5004353;28;97910;-68
2021/03/27 02:41:58;;;;;;;0.63;0.55;;;6.70;94.40;;;9.45;83.06;101227.78;4997924;28;96804;-68
2021/03/27 02:44:37;;;;;;;0.82;0.35;;;6.70;94.40;;;9.46;82.86;101235.53;5002525;28;96859;-69
2021/03/27 02:47:44;;;;;;;1.33;1.00;;;6.70;94.40;;;9.40;82.74;101238.53;5006137;28;97299;-68
2021/03/27 02:50:35;;;;;;;0.25;0.25;;;6.70;94.40;;;9.41;82.88;101238.22;5000993;28;98018;-68
2021/03/27 02:53:15;;;;;;;1.30;1.25;;;6.60;94.40;;;9.40;82.74;101246.56;5006576;28;96762;-69
2021/03/27 02:56:09;;;;;;;0.68;0.68;;;6.60;94.40;;;9.38;82.89;101251.38;5006508;28;96867;-69
2021/03/27 02:58:53;;;;;;;2.20;1.42;;;6.60;94.40;;;9.34;82.83;101256.50;5007005;28;96986;-69
2021/03/27 03:01:34;;;;;;;1.45;0.80;;;6.60;94.40;;;9.32;83.05;101260.53;5000947;28;96941;-69
2021/03/27 03:04:15;;;;;;;0.40;0.40;;;6.60;94.40;;;9.32;82.87;101260.53;5011400;28;96779;-69
2021/03/27 03:07:07;;;;;;;0.52;0.30;;;6.60;94.40;;;9.34;83.04;101266.41;5001997;28;97152;-69
2021/03/27 03:09:50;;;;;;;1.75;1.27;;;6.60;94.50;;;9.33;82.62;101281.63;4986365;28;97053;-69
2021/03/27 03:12:28;;;;;;;0.75;0.70;;;6.50;94.40;;;9.31;82.65;101283.00;5002879;28;98453;-68
2021/03/27 03:15:12;;;;;;;1.20;0.98;;;6.60;94.50;;;9.22;82.71;101291.91;5002421;28;97406;-69
2021/03/27 03:17:48;;;;;;;;;;;6.50;94.40;;;9.12;82.74;101299.97;5007046;28;96774;-68
2021/03/27 03:20:27;;;;;;;0.20;0.20;;;6.50;94.40;;;9.04;83.21;101290.69;5006973;28;97103;-69
2021/03/27 03:23:08;;;;;;;0.30;0.30;;;6.50;94.40;;;9.05;83.35;101288.81;5005892;28;96678;-68
2021/03/27 03:25:51;;;;;;;0.40;0.40;;;6.40;94.40;;;9.03;82.81;101293.63;4989926;28;96865;-68
2021/03/27 03:28:32;;;;;;;0.28;0.28;;;6.40;94.40;;;8.97;82.88;101290.19;5007210;28;97048;-68
2021/03/27 03:31:27;;;;;;;0.85;0.45;;;6.40;94.40;;;8.92;82.71;101292.88;4998510;28;97264;-68
2021/03/27 03:34:22;;;;;;;0.15;0.15;;;6.30;94.30;;;8.85;82.70;101300.41;4989095;28;98822;-69
2021/03/27 03:37:07;;;;;;;0.08;0.08;;;6.30;94.30;;;8.79;82.88;101306.88;5001850;28;97681;-69
2021/03/27 03:40:16;;;;;;;0.60;0.60;;;6.20;94.20;;;8.71;82.97;101309.31;5007122;28;96857;-69
2021/03/27 03:43:28;;;;;;;0.43;0.43;;;6.10;94.20;;;8.60;83.00;101319.25;5000923;28;97790;-69
2021/03/27 03:46:27;;;;;;;0.03;0.03;;;6.00;94.10;;;8.52;82.89;101319.00;5003370;28;97921;-69
2021/03/27 03:49:33;;;;;;;0.05;0.05;;;6.00;94.20;;;8.43;83.24;101315.31;5000785;28;97693;-69
2021/03/27 03:52:31;;;;;;;0.20;0.20;;;5.90;94.20;;;8.33;82.63;101324.16;5001103;28;97551;-69
2021/03/27 03:55:22;;;;;;;0.10;0.10;;;5.80;94.20;;;8.29;83.09;101339.13;4999781;28;96840;-69
2021/03/27 03:58:27;;;;;;;3.03;0.55;;;5.80;94.20;;;8.22;83.23;101338.63;5006057;28;97570;-69
2021/03/27 04:01:06;;;;;;;0.35;0.35;;;5.70;94.20;;;8.14;83.41;101336.47;4996011;28;98130;-69
2021/03/27 04:03:47;;;;;;;0.75;0.75;;;5.60;94.10;;;8.10;83.12;101342.63;4995408;28;96750;-69
2021/03/27 04:06:23;;;;;;;0.10;0.10;;;5.60;94.10;;;8.01;83.25;101342.34;4998317;28;96802;-66
2021/03/27 04:09:03;;;;;;;0.10;0.10;;;5.50;94.10;;;7.88;83.11;101339.44;5000573;28;96958;-66
2021/03/27 04:11:51;;;;;;;1.02;0.73;;;5.50;94.10;;;7.82;83.75;101348.53;5003205;28;96848;-66
2021/03/27 04:14:46;;;;;;;0.30;0.30;;;5.40;94.10;;;7.71;82.90;101346.94;5004701;28;97305;-66
2021/03/27 04:17:31;;;;;;;0.10;0.10;;;5.30;94.00;;;7.53;83.80;101349.34;5003419;28;97044;-66
2021/03/27 04:20:10;;;;;;;0.30;0.25;;;5.30;94.00;;;7.39;84.10;101358.91;5002281;28;97910;-66
2021/03/27 04:22:46;;;;;;;9.13;1.17;;;5.20;94.00;;;7.51;83.19;101351.47;5001788;28;97561;-66
2021/03/27 04:25:30;;;;;;;1.63;0.60;;;5.20;94.00;;;7.51;82.67;101354.16;5002560;28;96816;-66
2021/03/27 04:28:12;;;;;;;0.50;0.50;;;5.10;94.10;;;7.28;84.75;101357.31;5006915;28;97159;-66
2021/03/27 04:30:59;;;;;;;0.20;0.20;;;5.00;94.10;;;7.32;84.54;101355.72;4996937;28;101180;-66
2021/03/27 04:33:47;;;;;;;0.50;0.50;;;5.00;94.20;;;7.42;84.31;101363.72;5002162;28;97694;-66
2021/03/27 04:36:21;;;;;;;0.30;0.30;;;5.00;94.30;;;7.52;84.04;101369.88;5006255;28;97353;-66
2021/03/27 04:39:02;;;;;;;0.98;0.98;;;5.00;94.40;;;7.56;83.71;101370.16;4997619;28;96958;-66
2021/03/27 04:41:47;;;;;;;0.28;0.28;;;5.00;94.50;;;7.56;84.44;101359.47;5001539;28;97552;-66
2021/03/27 04:44:27;;;;;;;0.38;0.25;;;5.10;94.50;;;7.55;83.90;101374.66;5002207;28;97903;-66
2021/03/27 04:47:03;;;;;;;0.30;0.30;;;5.10;94.50;;;7.45;83.85;101371.19;4999360;28;97137;-66
2021/03/27 04:49:49;;;;;;;1.70;1.25;;;5.10;94.40;;;7.54;83.03;101382.94;5002346;28;96980;-66
2021/03/27 04:52:35;;;;;;;1.45;1.13;;;5.00;94.20;;;7.55;82.88;101379.22;5001324;28;98937;-66
2021/03/27 04:55:28;;;;;;;0.73;0.70;;;5.00;94.20;;;7.32;84.61;101382.38;5005705;28;97923;-67
2021/03/27 04:58:23;;;;;;;0.63;0.63;;;4.90;94.30;;;7.40;84.26;101376.50;5003126;28;96793;-66
2021/03/27 05:01:12;;;;;;;1.10;1.00;;;5.00;94.40;;;7.57;84.34;101380.53;4994647;28;97080;-66
2021/03/27 05:03:54;;;;;;;0.13;0.13;;;5.00;94.50;;;7.84;83.05;101378.41;4999874;28;96910;-66
2021/03/27 05:06:36;;;;;;;1.92;1.30;;;5.00;94.50;;;7.56;83.14;101378.94;5006169;28;97759;-66
2021/03/27 05:09:41;;;;;;;0.82;0.65;;;5.10;94.50;;;7.46;83.04;101375.44;5001218;28;96876;-66
2021/03/27 05:12:19;;;;;;;0.28;0.28;;;5.10;94.40;;;7.44;83.86;101373.06;4995227;28;96948;-66
2021/03/27 05:15:06;;;;;;;4.28;1.13;;;5.00;94.40;;;7.48;84.51;101378.66;5000631;28;96873;-66
2021/03/27 05:18:25;;;;;;;4.22;2.55;;;5.10;94.50;;;7.72;82.88;101370.66;5005311;28;96793;-66
2021/03/27 05:21:09;;;;;;;1.10;0.90;;;5.10;94.50;;;7.64;84.09;101388.28;4997477;28;96838;-66
2021/03/27 05:23:52;;;;;;;0.28;0.28;;;5.10;94.50;;;7.85;83.51;101386.16;4997920;28;97418;-67
2021/03/27 05:26:35;;;;;;;2.35;0.88;;;5.20;94.60;;;7.92;83.21;101391.19;5004424;28;97877;-67
2021/03/27 05:29:35;;;;;;;2.30;1.52;;;5.20;94.60;;;8.13;82.79;101393.59;5001482;28;98287;-67
2021/03/27 05:32:40;;;;;;;1.35;1.10;;;5.20;94.60;;;8.24;83.06;101399.72;5005950;28;97248;-67
2021/03/27 05:35:28;;;;;;;0.60;0.47;;;5.30;94.60;;;8.15;82.98;101402.13;5005410;28;97025;-67
2021/03/27 05:38:14;;;;;;;0.88;0.88;;;5.40;94.90;;;8.33;82.53;101403.47;5000113;28;97446;-65
2021/03/27 05:42:18;;;;;;;0.55;0.55;;;5.40;94.60;;;8.37;83.34;101402.63;4996639;28;97177;-67
2021/03/27 05:46:09;;;;;;;0.32;0.32;;;5.50;94.60;;;8.47;82.92;101399.97;4992663;28;96867;-67
2021/03/27 05:49:47;;;;;;;0.73;0.73;;;5.60;94.60;;;8.48;83.49;101404.22;5003155;28;96970;-67
2021/03/27 05:52:40;;;;;;;1.27;0.98;;;5.70;94.60;;;8.60;82.84;101404.72;4997527;28;98855;-67
2021/03/27 05:56:14;;;;;;;0.55;0.52;;;5.80;94.60;;;8.71;82.55;101422.31;4999146;28;98663;-66
2021/03/27 05:59:29;;;;;;;0.57;0.30;;;5.80;94.60;;;8.76;82.85;101422.31;4981351;28;96776;-66
2021/03/27 06:02:06;;;;;;;2.53;1.73;;;5.90;94.60;;;8.78;82.71;101428.16;5001587;28;97022;-66
2021/03/27 06:05:21;;;;;;;0.47;0.47;;;6.00;94.60;;;8.92;82.52;101425.72;5004984;28;98750;-66
2021/03/27 06:08:36;;;;;;;9.65;0.57;;;6.00;94.60;;;9.06;82.36;101440.06;4999310;28;97119;-66
2021/03/27 06:11:38;;;;;;;1.25;1.15;;;6.10;94.60;;;9.07;82.45;101437.16;5000253;28;97260;-66
2021/03/27 06:14:42;;;;;;;0.20;0.20;;;6.20;94.60;;;9.07;82.53;101441.69;5001257;28;97015;-66
2021/03/27 06:17:56;;;;;;;3.20;0.82;;;6.30;94.60;;;9.14;82.61;101444.84;4984370;28;97808;-66
2021/03/27 06:20:59;;;;;;;0.68;0.68;;;6.30;94.60;;;9.22;82.41;101447.75;4995221;28;97841;-66
2021/03/27 06:24:23;;;;;;;0.40;0.40;;;6.40;94.50;;;9.31;82.54;101432.75;5007360;28;96814;-66
2021/03/27 06:27:27;;;;;;;5.78;1.10;;;6.40;94.50;;;9.69;81.49;101448.00;5000654;28;96744;-66
2021/03/27 06:30:29;;;;;;;0.30;0.30;;;6.60;94.40;;;9.83;81.44;101447.09;5000528;28;98059;-66
2021/03/27 06:33:51;;;;;;;2.05;1.23;;;6.70;94.20;;;9.88;81.00;101446.25;5005416;28;98865;-66
2021/03/27 06:36:55;;;;;;;0.20;0.20;;;6.80;94.10;;;10.46;80.02;101445.22;5000454;28;97176;-67
2021/03/27 06:40:23;;;;;;;0.38;0.38;;;6.90;94.00;;;10.40;80.21;101452.53;4994538;28;97590;-67
2021/03/27 06:43:27;;;;;;;0.00;0.00;;;7.10;93.90;;;9.99;81.09;101461.97;5002304;28;97255;-67
2021/03/27 06:46:37;;;;;;;0.08;0.08;;;7.10;93.90;;;9.75;81.91;101476.34;5004509;28;97689;-66
2021/03/27 06:49:59;;;;;;;0.40;0.40;;;7.10;94.00;;;9.69;81.91;101477.44;5005344;28;96824;-67
2021/03/27 06:53:19;;;;;;;0.98;0.52;;;7.00;94.00;;;9.65;81.67;101489.78;5000392;28;97016;-66
2021/03/27 06:56:15;;;;;;;;;;;7.00;94.00;;;9.70;81.29;101495.88;4993529;28;97761;-66
2021/03/27 06:59:19;;;;;;;0.10;0.10;;;7.00;94.00;;;9.80;81.99;101501.19;5004749;28;97960;-66
2021/03/27 07:03:04;;;;;;;0.20;0.20;;;7.00;94.00;;;9.65;82.06;101511.97;5002016;28;97050;-66
2021/03/27 07:06:31;;;;;;;0.20;0.20;;;7.00;94.00;;;9.84;81.23;101518.28;5000503;28;96821;-66
2021/03/27 07:10:07;;;;;;;0.25;0.25;;;6.90;93.90;;;10.13;80.82;101516.50;5005357;28;97373;-66
2021/03/27 07:13:18;;;;;;;0.30;0.30;;;7.00;94.00;;;10.71;79.46;101522.69;5010591;28;98482;-66
2021/03/27 07:16:04;;;;;;;0.13;0.13;;;7.20;94.00;;;14.11;69.81;101535.56;5005531;28;96783;-66
2021/03/27 07:19:47;;;;;;;0.13;0.13;;;7.60;93.80;;;16.26;63.53;101533.06;5001189;28;96750;-67
2021/03/27 07:22:46;;;;;;;0.40;0.40;;;8.90;92.50;;;14.36;69.64;101535.78;5008713;28;96762;-67
2021/03/27 07:25:48;;;;;;;0.30;0.30;;;9.70;91.70;;;13.18;74.36;101537.31;5006606;28;97827;-66
2021/03/27 07:29:05;;;;;;;2.65;1.13;;;9.70;91.70;;;12.50;76.49;101539.09;5006789;28;97838;-66
2021/03/27 07:31:53;;;;;;;0.20;0.20;;;9.50;92.00;;;12.22;78.39;101550.84;5000243;28;98269;-66
2021/03/27 07:34:54;;;;;;;0.43;0.43;;;9.30;92.40;;;12.04;78.66;101558.91;4998825;28;98119;-67
2021/03/27 07:38:08;;;;;;;0.20;0.20;;;9.20;92.80;;;11.92;79.46;101572.00;4997416;28;97778;-66
2021/03/27 07:40:50;;;;;;;0.10;0.10;;;9.10;92.90;;;11.84;79.17;101580.66;4999543;28;96892;-66
2021/03/27 07:44:07;;;;;;;0.10;0.10;;;9.00;92.80;;;11.69;79.89;101589.72;5001685;28;97075;-66
2021/03/27 07:47:23;;;;;;;1.65;0.30;;;8.90;93.30;;;11.62;80.11;101597.34;5005310;28;98116;-66
2021/03/27 07:50:32;;;;;;;1.02;0.98;;;8.80;93.20;;;11.84;78.91;101592.22;5004068;28;98877;-66
2021/03/27 07:54:03;;;;;;;0.13;0.13;;;8.80;93.20;;;12.18;78.86;101608.16;5006571;28;97987;-66
2021/03/27 07:56:45;;;;;;;0.10;0.10;;;8.80;93.20;;;12.34;78.42;101613.00;5005032;28;97512;-67
2021/03/27 08:00:05;;;;;;;7.60;1.85;;;9.00;93.20;;;12.55;78.05;101625.03;5003199;28;97437;-67
2021/03/27 08:03:36;;;;;;;2.22;0.25;;;9.10;93.10;;;12.93;76.93;101613.94;5004812;28;96942;-67
2021/03/27 08:06:33;;;;;;;1.55;0.60;;;9.20;93.00;;;13.17;75.98;101624.53;5006909;28;96958;-67
2021/03/27 08:09:58;;;;;;;1.15;1.00;;;9.40;92.80;;;12.96;76.35;101626.00;5012776;27;96887;-67
2021/03/27 08:13:28;;;;;;;;;;;9.50;92.40;;;12.81;77.32;101640.47;4988242;28;98045;-67
2021/03/27 08:16:48;;;;;;;0.00;0.00;;;9.50;92.20;;;13.53;75.31;101647.03;4938722;28;97853;-67
2021/03/27 08:19:54;;;;;;;0.00;0.00;;;9.60;92.30;;;14.30;72.50;101650.25;4988671;28;97771;-67
2021/03/27 08:23:10;;;;;;;0.00;0.00;;;9.80;92.10;;;16.35;66.55;101650.19;4964539;28;97519;-67
2021/03/27 08:25:53;;;;;;;0.00;0.00;;;10.20;92.00;;;16.42;67.28;101656.72;5001400;28;99509;-67
2021/03/27 08:29:06;;;;;;;2.45;0.55;;;10.70;91.50;;;18.22;62.10;101663.97;5005359;28;97711;-67
2021/03/27 08:32:29;;;;;;;0.00;0.00;;;11.20;90.90;;;22.62;51.72;101669.84;4999628;28;96945;-67
2021/03/27 08:35:52;;;;;;;0.08;0.08;;;12.10;90.40;;;22.14;53.17;101675.00;5000654;28;96904;-67
2021/03/27 08:38:51;;;;;;;5.30;1.65;;;13.40;88.30;;;22.91;52.02;101680.19;4998594;28;98049;-67
2021/03/27 08:42:05;;;;;;;11.07;1.52;;;14.30;87.00;;;24.87;49.10;101679.38;5005842;28;96944;-68
2021/03/27 08:45:05;;;;;;;1.88;1.70;;;14.80;86.60;;;20.55;60.18;101673.91;5002444;28;97519;-68
2021/03/27 08:48:05;;;;;;;2.92;1.17;;;15.30;85.10;;;21.77;57.50;101679.19;5001572;28;97023;-68
2021/03/27 08:51:16;;;;;;;0.22;0.20;;;15.60;84.40;;;20.15;61.81;101681.28;4998418;28;96884;-68
2021/03/27 08:54:56;;;;;;;2.33;0.15;;;15.80;83.50;;;17.32;70.50;101683.50;5001693;28;97342;-67
2021/03/27 08:58:48;;;;;;;0.10;0.10;;;15.30;83.80;;;15.33;73.91;101698.50;4987944;28;97509;-67
2021/03/27 09:02:12;;;;;;;0.85;0.45;;;14.20;84.10;;;14.44;76.21;101688.75;4975757;28;97178;-66
2021/03/27 09:05:14;;;;;;;4.47;1.50;;;13.10;85.40;;;14.29;76.86;101691.00;4998255;28;97103;-65
2021/03/27 09:08:16;;;;;;;2.08;0.28;;;12.40;87.80;;;17.20;68.33;101696.13;4999171;28;98200;-65
2021/03/27 09:11:12;;;;;;;0.47;0.40;;;12.20;89.50;;;17.45;65.85;101690.66;5006326;28;97343;-66
2021/03/27 09:14:12;;;;;;;0.00;0.00;;;12.50;89.00;;;20.54;57.15;101702.28;4984528;28;96930;-66
2021/03/27 09:17:33;;;;;;;0.10;0.10;;;12.80;88.60;;;23.50;51.22;101707.88;5001374;28;98884;-68
2021/03/27 09:20:33;;;;;;;1.35;0.85;;;13.50;89.20;;;24.44;50.22;101707.41;4998896;28;97790;-68
2021/03/27 09:23:39;;;;;;;18.33;1.02;;;14.70;89.20;;;25.26;50.20;101699.84;5003998;28;98552;-68
2021/03/27 09:27:14;;;;;;;0.32;0.28;;;15.70;87.50;;;22.31;58.58;101692.56;5003042;28;96853;-68
2021/03/27 09:30:12;;;;;;;1.67;1.00;;;16.80;84.70;;;19.72;66.00;101704.72;5003926;28;98208;-68
2021/03/27 09:32:58;;;;;;;0.10;0.10;;;16.80;82.60;;;17.76;71.13;101716.38;5001289;28;97797;-68
2021/03/27 09:36:12;;;;;;;3.25;0.65;;;16.10;81.80;;;16.02;75.10;101752.50;5004855;28;97195;-68
2021/03/27 09:38:54;;;;;;;0.15;0.10;;;15.20;82.10;;;15.08;75.72;101761.19;5001493;28;97206;-67
2021/03/27 09:42:17;;;;;;;1.98;0.63;;;14.10;83.10;;;14.78;77.05;101750.28;5000655;28;96878;-67
2021/03/27 09:45:26;;;;;;;0.32;0.32;;;13.40;85.10;;;14.18;77.61;101778.53;5018712;28;99289;-67
2021/03/27 09:48:35;;;;;;;9.40;1.17;;;12.80;86.50;;;13.48;78.11;101795.16;4995631;28;97751;-67
2021/03/27 09:51:19;;;;;;;1.27;1.13;;;12.10;86.90;;;12.97;78.55;101805.16;4998499;28;97003;-67
2021/03/27 09:54:03;;;;;;;0.17;0.17;;;11.50;87.30;;;12.29;79.00;101828.03;5004229;28;96849;-67
2021/03/27 09:56:41;;;;;;;0.00;0.00;;;10.90;87.30;;;11.76;80.30;101839.88;5005237;28;97844;-66
2021/03/27 09:59:26;;;;;;;0.05;0.05;;;10.40;88.10;;;11.23;80.13;101842.69;4998372;28;97036;-66
2021/03/27 10:02:12;;;;;;;0.75;0.17;;;9.80;88.50;;;10.78;80.61;101852.88;5004365;28;97335;-67
2021/03/27 10:05:10;;;;;;;2.72;1.73;;;9.30;89.20;;;10.51;81.21;101852.44;4994082;28;97912;-67
2021/03/27 10:08:13;;;;;;;7.97;0.63;;;8.80;90.20;;;10.38;81.34;101866.44;4998999;28;97701;-67
2021/03/27 10:11:03;;;;;;;0.00;0.00;;;8.50;90.70;;;10.33;81.65;101877.94;5002646;28;96863;-67
2021/03/27 10:14:00;;;;;;;0.20;0.20;;;8.30;91.10;;;10.35;81.02;101886.50;5004016;28;96874;-67
2021/03/27 10:16:41;;;;;;;0.60;0.20;;;8.10;91.20;;;10.55;80.55;101873.06;4997677;28;97134;-67
2021/03/27 10:19:34;;;;;;;0.55;0.55;;;8.00;91.40;;;10.88;79.33;101875.06;5004253;28;99195;-67
2021/03/27 10:22:21;;;;;;;0.00;0.00;;;8.10;91.50;;;11.12;78.52;101876.84;5004101;28;97225;-67
2021/03/27 10:25:22;;;;;;;0.00;0.00;;;8.20;91.40;;;11.84;77.10;101881.41;4987284;28;97272;-68
2021/03/27 10:28:14;;;;;;;0.05;0.05;;;8.40;91.60;;;12.65;74.95;101880.31;4997375;28;98457;-67
2021/03/27 10:30:57;;;;;;;0.10;0.10;;;8.70;91.70;;;12.90;73.89;101869.22;4998707;28;98829;-68
2021/03/27 10:33:43;;;;;;;0.15;0.15;;;9.00;91.40;;;13.18;73.17;101881.78;4999701;28;97169;-68
2021/03/27 10:36:46;;;;;;;0.20;0.20;;;9.30;91.10;;;13.13;73.46;101885.34;5007481;28;97337;-68
2021/03/27 10:39:41;;;;;;;0.10;0.10;;;9.50;90.90;;;13.57;73.15;101888.47;5007628;28;97412;-68
2021/03/27 10:42:45;;;;;;;0.00;0.00;;;9.70;91.10;;;14.21;71.94;101883.88;5007700;28;97733;-68
2021/03/27 10:45:33;;;;;;;0.00;0.00;;;10.00;91.10;;;14.88;71.17;101901.19;5007224;28;97271;-68
2021/03/27 10:48:57;;;;;;;0.00;0.00;;;10.50;91.30;;;14.65;71.18;101888.69;5005211;28;97305;-68
2021/03/27 10:52:00;;;;;;;0.00;0.00;;;10.70;90.50;;;14.80;71.87;101893.78;5005020;28;98251;-68
2021/03/27 10:55:20;;;;;;;0.00;0.00;;;10.90;90.50;;;14.95;72.68;101896.16;5005949;28;97701;-68
2021/03/27 10:58:44;;;;;;;0.10;0.10;;;11.10;90.60;;;15.58;70.89;101894.22;5002929;28;98005;-68
2021/03/27 11:02:20;;;;;;;0.45;0.45;;;11.40;90.60;;;16.32;70.53;101896.91;5006848;28;96888;-68
2021/03/27 11:06:10;;;;;;;1.98;0.88;;;11.90;90.40;;;15.84;71.57;101898.69;5002695;28;96863;-68
2021/03/27 11:09:32;;;;;;;1.45;0.65;;;12.10;90.10;;;15.91;71.44;101899.06;4922342;28;97911;-68
2021/03/27 11:12:48;;;;;;;1.15;1.13;;;12.20;89.40;;;14.98;74.43;101901.75;5000411;28;96794;-68
2021/03/27 11:15:41;;;;;;;0.20;0.20;;;12.00;90.00;;;14.00;75.86;101892.59;4998606;28;97309;-68
2021/03/27 11:18:49;;;;;;;0.52;0.52;;;11.70;90.00;;;13.44;76.67;101923.41;5022664;28;97836;-67
2021/03/27 11:21:51;;;;;;;0.00;0.00;;;11.20;90.10;;;13.19;77.49;101924.56;5005716;28;97469;-66
2021/03/27 11:24:49;;;;;;;2.65;0.60;;;10.80;90.50;;;13.47;76.15;101926.31;5003680;28;96759;-66
2021/03/27 11:28:09;;;;;;;0.10;0.10;;;10.60;90.80;;;13.46;76.34;101932.78;4999242;28;96915;-67
2021/03/27 11:31:05;;;;;;;0.00;0.00;;;10.50;91.00;;;13.43;76.71;101936.06;4996088;28;96901;-67
2021/03/27 11:33:41;;;;;;;0.20;0.20;;;10.50;91.10;;;14.43;74.74;101940.66;5006999;28;97691;-67
2021/03/27 11:36:21;;;;;;;0.57;0.47;;;10.70;91.50;;;15.23;73.20;101936.31;5006551;28;96842;-67
2021/03/27 11:39:03;;;;;;;4.63;0.85;;;11.10;91.40;;;15.33;73.02;101933.44;5003240;28;96904;-68
2021/03/27 11:41:53;;;;;;;1.45;0.57;;;11.50;91.20;;;15.43;73.76;101925.09;5003312;28;96786;-68
2021/03/27 11:44:43;;;;;;;18.77;0.38;;;11.70;91.10;;;15.86;73.28;101939.72;5002880;28;97778;-67
2021/03/27 11:47:34;;;;;;;0.00;0.00;;;12.00;91.10;;;16.41;72.60;101935.63;5000618;28;97234;-68
2021/03/27 11:50:46;;;;;;;0.00;0.00;;;12.40;90.70;;;16.71;71.85;101956.47;5004046;28;98145;-68
2021/03/27 11:53:51;;;;;;;0.30;0.30;;;12.70;90.30;;;16.62;72.35;101959.13;5005701;28;99005;-68
2021/03/27 11:56:40;;;;;;;0.00;0.00;;;12.90;90.30;;;16.35;72.80;101970.13;5005280;28;97760;-68
2021/03/27 12:02:55;;;;;;;0.10;0.10;;;12.90;90.20;;;15.91;74.58;101982.84;4999514;28;97437;-68
2021/03/27 12:05:36;;;;;;;0.13;0.10;;;12.70;90.30;;;16.02;74.76;101992.34;5004801;28;97898;-69
2021/03/27 12:08:25;;;;;;;0.65;0.35;;;12.70;90.50;;;15.71;75.00;101994.16;5002169;28;97791;-67
2021/03/27 12:11:11;;;;;;;0.10;0.10;;;12.60;90.50;;;15.65;75.83;102002.66;4999623;28;97366;-66
2021/03/27 12:13:50;;;;;;;0.55;0.22;;;12.50;90.60;;;15.44;75.25;102013.13;5003641;28;97264;-67
2021/03/27 12:16:28;;;;;;;0.70;0.43;;;12.40;90.40;;;14.74;77.00;102025.31;4999455;28;99484;-66
2021/03/27 12:19:30;;;;;;;0.10;0.10;;;12.20;90.30;;;14.01;77.54;102030.81;5004120;28;98245;-66
2021/03/27 12:22:08;;;;;;;0.10;0.10;;;11.80;90.30;;;13.40;78.78;102062.38;4999999;28;96833;-66
2021/03/27 12:25:13;;;;;;;0.10;0.10;;;11.30;90.30;;;12.92;79.41;102064.25;5006396;28;96942;-65
2021/03/27 12:27:52;;;;;;;1.08;0.30;;;10.90;90.40;;;12.44;79.76;102075.16;4998029;28;103023;-65